sensor_id;sensor_type;location;lat;lon;timestamp;pressure;altitude;pressure_sealevel;temperature;humidity
7760;BME280;3924;48.830;9.262;2022-09-09T00:00:12;98221.53;;;17.02;67.91
7760;BME280;3924;48.830;9.262;2022-09-09T00:02:47;98216.50;;;17.04;68.13
7760;BME280;3924;48.830;9.262;2022-09-09T00:05:32;98218.78;;;17.02;67.48
7760;BME280;3924;48.830;9.262;2022-09-09T00:08:03;98207.72;;;16.99;68.00
7760;BME280;3924;48.830;9.262;2022-09-09T00:10:34;98209.19;;;16.96;68.31
7760;BME280;3924;48.830;9.262;2022-09-09T00:13:22;98215.13;;;16.98;67.96
7760;BME280;3924;48.830;9.262;2022-09-09T00:18:48;98200.94;;;17.08;67.59
7760;BME280;3924;48.830;9.262;2022-09-09T00:21:17;98206.91;;;17.10;67.82
7760;BME280;3924;48.830;9.262;2022-09-09T00:23:48;98201.28;;;17.19;67.47
7760;BME280;3924;48.830;9.262;2022-09-09T00:29:00;98201.16;;;17.28;67.56
7760;BME280;3924;48.830;9.262;2022-09-09T00:31:31;98190.69;;;17.30;66.61
7760;BME280;3924;48.830;9.262;2022-09-09T00:34:15;98194.75;;;17.36;66.59
7760;BME280;3924;48.830;9.262;2022-09-09T00:36:45;98197.59;;;17.39;66.87
7760;BME280;3924;48.830;9.262;2022-09-09T00:39:34;98202.84;;;17.44;66.98
7760;BME280;3924;48.830;9.262;2022-09-09T00:58:22;98193.19;;;17.63;65.61
7760;BME280;3924;48.830;9.262;2022-09-09T01:00:52;98198.78;;;17.66;65.22
7760;BME280;3924;48.830;9.262;2022-09-09T01:03:29;98201.19;;;17.68;65.72
7760;BME280;3924;48.830;9.262;2022-09-09T01:11:24;98208.59;;;17.67;65.96
7760;BME280;3924;48.830;9.262;2022-09-09T01:14:14;98202.69;;;17.65;65.80
7760;BME280;3924;48.830;9.262;2022-09-09T01:16:45;98199.59;;;17.67;65.79
7760;BME280;3924;48.830;9.262;2022-09-09T01:19:22;98194.91;;;17.67;65.41
7760;BME280;3924;48.830;9.262;2022-09-09T01:22:09;98193.66;;;17.65;65.68
7760;BME280;3924;48.830;9.262;2022-09-09T01:24:41;98197.19;;;17.65;65.65
7760;BME280;3924;48.830;9.262;2022-09-09T01:27:12;98190.13;;;17.64;66.01
7760;BME280;3924;48.830;9.262;2022-09-09T01:29:41;98198.66;;;17.63;65.81
7760;BME280;3924;48.830;9.262;2022-09-09T01:35:03;98211.13;;;17.60;64.78
7760;BME280;3924;48.830;9.262;2022-09-09T01:37:29;98215.47;;;17.61;65.28
7760;BME280;3924;48.830;9.262;2022-09-09T01:39:56;98210.44;;;17.63;64.82
7760;BME280;3924;48.830;9.262;2022-09-09T01:42:22;98215.91;;;17.63;64.74
7760;BME280;3924;48.830;9.262;2022-09-09T01:44:49;98219.81;;;17.62;64.83
7760;BME280;3924;48.830;9.262;2022-09-09T01:47:15;98215.59;;;17.65;65.10
7760;BME280;3924;48.830;9.262;2022-09-09T01:49:42;98206.56;;;17.64;65.13
7760;BME280;3924;48.830;9.262;2022-09-09T01:52:08;98205.06;;;17.67;65.01
7760;BME280;3924;48.830;9.262;2022-09-09T01:54:35;98203.56;;;17.69;64.97
7760;BME280;3924;48.830;9.262;2022-09-09T01:57:06;98207.47;;;17.68;64.97
7760;BME280;3924;48.830;9.262;2022-09-09T02:02:48;98208.16;;;17.65;64.48
7760;BME280;3924;48.830;9.262;2022-09-09T02:05:39;98208.53;;;17.64;64.76
7760;BME280;3924;48.830;9.262;2022-09-09T02:08:20;98197.44;;;17.60;65.07
7760;BME280;3924;48.830;9.262;2022-09-09T02:11:11;98202.00;;;17.56;65.05
7760;BME280;3924;48.830;9.262;2022-09-09T02:13:39;98197.13;;;17.49;65.47
7760;BME280;3924;48.830;9.262;2022-09-09T02:16:08;98192.69;;;17.45;65.12
7760;BME280;3924;48.830;9.262;2022-09-09T02:21:29;98215.06;;;17.35;65.39
7760;BME280;3924;48.830;9.262;2022-09-09T02:23:59;98221.25;;;17.32;65.62
7760;BME280;3924;48.830;9.262;2022-09-09T02:26:32;98216.47;;;17.29;65.85
7760;BME280;3924;48.830;9.262;2022-09-09T02:29:01;98215.66;;;17.28;65.84
7760;BME280;3924;48.830;9.262;2022-09-09T02:31:30;98214.06;;;17.27;65.54
7760;BME280;3924;48.830;9.262;2022-09-09T02:34:00;98206.06;;;17.22;65.28
7760;BME280;3924;48.830;9.262;2022-09-09T02:36:31;98207.00;;;17.14;65.79
7760;BME280;3924;48.830;9.262;2022-09-09T02:38:59;98216.94;;;17.06;66.37
7760;BME280;3924;48.830;9.262;2022-09-09T02:41:31;98214.91;;;17.03;66.79
7760;BME280;3924;48.830;9.262;2022-09-09T02:43:58;98224.28;;;17.02;66.03
7760;BME280;3924;48.830;9.262;2022-09-09T02:49:02;98224.63;;;16.88;66.03
7760;BME280;3924;48.830;9.262;2022-09-09T02:51:47;98219.44;;;16.87;66.07
7760;BME280;3924;48.830;9.262;2022-09-09T02:54:27;98211.25;;;16.87;66.41
7760;BME280;3924;48.830;9.262;2022-09-09T02:57:11;98216.13;;;16.81;66.61
7760;BME280;3924;48.830;9.262;2022-09-09T02:59:39;98210.78;;;16.73;66.96
7760;BME280;3924;48.830;9.262;2022-09-09T03:02:06;98208.38;;;16.71;66.46
7760;BME280;3924;48.830;9.262;2022-09-09T03:04:32;98207.91;;;16.69;66.94
7760;BME280;3924;48.830;9.262;2022-09-09T03:07:00;98199.69;;;16.69;67.06
7760;BME280;3924;48.830;9.262;2022-09-09T03:09:26;98193.44;;;16.68;67.26
7760;BME280;3924;48.830;9.262;2022-09-09T03:11:52;98196.16;;;16.68;67.16
7760;BME280;3924;48.830;9.262;2022-09-09T03:14:22;98190.69;;;16.68;67.00
7760;BME280;3924;48.830;9.262;2022-09-09T03:16:51;98187.81;;;16.65;67.41
7760;BME280;3924;48.830;9.262;2022-09-09T03:19:18;98189.31;;;16.62;67.52
7760;BME280;3924;48.830;9.262;2022-09-09T03:21:45;98197.53;;;16.62;67.52
7760;BME280;3924;48.830;9.262;2022-09-09T03:24:13;98192.28;;;16.57;67.48
7760;BME280;3924;48.830;9.262;2022-09-09T03:26:42;98198.19;;;16.47;67.32
7760;BME280;3924;48.830;9.262;2022-09-09T03:29:11;98189.84;;;16.31;67.80
7760;BME280;3924;48.830;9.262;2022-09-09T03:31:41;98187.41;;;16.18;68.29
7760;BME280;3924;48.830;9.262;2022-09-09T03:34:08;98194.47;;;16.06;68.49
7760;BME280;3924;48.830;9.262;2022-09-09T03:36:36;98191.94;;;16.01;68.60
7760;BME280;3924;48.830;9.262;2022-09-09T03:39:03;98190.88;;;15.94;68.90
7760;BME280;3924;48.830;9.262;2022-09-09T03:41:30;98179.81;;;15.90;69.06
7760;BME280;3924;48.830;9.262;2022-09-09T03:43:56;98191.28;;;15.83;69.16
7760;BME280;3924;48.830;9.262;2022-09-09T03:46:24;98187.66;;;15.79;69.19
7760;BME280;3924;48.830;9.262;2022-09-09T03:48:51;98193.69;;;15.85;68.92
7760;BME280;3924;48.830;9.262;2022-09-09T03:51:21;98203.97;;;15.88;69.62
7760;BME280;3924;48.830;9.262;2022-09-09T03:53:48;98207.94;;;15.91;69.72
7760;BME280;3924;48.830;9.262;2022-09-09T03:56:15;98206.00;;;15.91;69.42
7760;BME280;3924;48.830;9.262;2022-09-09T03:58:41;98198.50;;;15.88;69.67
7760;BME280;3924;48.830;9.262;2022-09-09T04:01:10;98200.09;;;15.89;70.01
7760;BME280;3924;48.830;9.262;2022-09-09T04:03:37;98205.69;;;15.93;69.63
7760;BME280;3924;48.830;9.262;2022-09-09T04:06:04;98196.13;;;15.99;69.90
7760;BME280;3924;48.830;9.262;2022-09-09T04:08:33;98197.84;;;16.03;69.56
7760;BME280;3924;48.830;9.262;2022-09-09T04:11:02;98201.19;;;16.09;69.84
7760;BME280;3924;48.830;9.262;2022-09-09T04:13:33;98209.03;;;16.10;69.77
7760;BME280;3924;48.830;9.262;2022-09-09T04:16:01;98213.72;;;16.10;69.60
7760;BME280;3924;48.830;9.262;2022-09-09T04:18:30;98212.72;;;16.14;69.59
7760;BME280;3924;48.830;9.262;2022-09-09T04:20:56;98211.91;;;16.14;69.62
7760;BME280;3924;48.830;9.262;2022-09-09T04:23:25;98209.50;;;16.12;69.71
7760;BME280;3924;48.830;9.262;2022-09-09T04:25:53;98202.44;;;16.11;69.69
7760;BME280;3924;48.830;9.262;2022-09-09T04:28:22;98214.16;;;16.12;69.74
7760;BME280;3924;48.830;9.262;2022-09-09T04:30:49;98217.38;;;16.14;69.61
7760;BME280;3924;48.830;9.262;2022-09-09T04:33:16;98219.09;;;16.19;69.76
7760;BME280;3924;48.830;9.262;2022-09-09T04:35:45;98225.94;;;16.25;69.37
7760;BME280;3924;48.830;9.262;2022-09-09T04:38:12;98220.72;;;16.32;69.43
7760;BME280;3924;48.830;9.262;2022-09-09T04:40:38;98219.38;;;16.38;69.21
7760;BME280;3924;48.830;9.262;2022-09-09T04:43:09;98215.28;;;16.44;69.21
7760;BME280;3924;48.830;9.262;2022-09-09T04:45:40;98223.94;;;16.46;69.06
7760;BME280;3924;48.830;9.262;2022-09-09T04:48:07;98219.75;;;16.49;68.97
7760;BME280;3924;48.830;9.262;2022-09-09T04:50:33;98223.28;;;16.49;68.75
7760;BME280;3924;48.830;9.262;2022-09-09T04:53:03;98216.22;;;16.48;69.24
7760;BME280;3924;48.830;9.262;2022-09-09T04:55:31;98206.72;;;16.46;69.15
7760;BME280;3924;48.830;9.262;2022-09-09T04:58:07;98216.06;;;16.45;68.81
7760;BME280;3924;48.830;9.262;2022-09-09T05:00:35;98226.22;;;16.44;68.69
7760;BME280;3924;48.830;9.262;2022-09-09T05:03:05;98224.03;;;16.37;68.91
7760;BME280;3924;48.830;9.262;2022-09-09T05:05:33;98227.13;;;16.36;69.24
7760;BME280;3924;48.830;9.262;2022-09-09T05:08:03;98225.06;;;16.33;69.14
7760;BME280;3924;48.830;9.262;2022-09-09T05:10:32;98230.06;;;16.31;69.81
7760;BME280;3924;48.830;9.262;2022-09-09T05:12:59;98225.06;;;16.33;69.15
7760;BME280;3924;48.830;9.262;2022-09-09T05:15:25;98240.13;;;16.39;68.97
7760;BME280;3924;48.830;9.262;2022-09-09T05:17:52;98237.50;;;16.42;68.97
7760;BME280;3924;48.830;9.262;2022-09-09T05:20:21;98236.81;;;16.46;69.21
7760;BME280;3924;48.830;9.262;2022-09-09T05:22:47;98237.31;;;16.48;68.86
7760;BME280;3924;48.830;9.262;2022-09-09T05:25:13;98246.56;;;16.55;68.90
7760;BME280;3924;48.830;9.262;2022-09-09T05:27:40;98249.06;;;16.60;68.55
7760;BME280;3924;48.830;9.262;2022-09-09T05:30:07;98254.31;;;16.65;68.74
7760;BME280;3924;48.830;9.262;2022-09-09T05:32:34;98241.06;;;16.67;68.79
7760;BME280;3924;48.830;9.262;2022-09-09T05:35:00;98253.66;;;16.68;68.44
7760;BME280;3924;48.830;9.262;2022-09-09T05:37:27;98253.44;;;16.74;68.42
7760;BME280;3924;48.830;9.262;2022-09-09T05:39:56;98245.22;;;16.74;68.60
7760;BME280;3924;48.830;9.262;2022-09-09T05:42:22;98250.50;;;16.79;68.37
7760;BME280;3924;48.830;9.262;2022-09-09T05:44:49;98249.47;;;16.83;68.43
7760;BME280;3924;48.830;9.262;2022-09-09T05:47:17;98251.50;;;16.86;68.53
7760;BME280;3924;48.830;9.262;2022-09-09T05:49:43;98247.75;;;16.91;67.92
7760;BME280;3924;48.830;9.262;2022-09-09T05:52:09;98252.66;;;16.98;68.30
7760;BME280;3924;48.830;9.262;2022-09-09T05:54:36;98256.22;;;16.98;67.97
7760;BME280;3924;48.830;9.262;2022-09-09T05:57:03;98254.63;;;16.97;68.42
7760;BME280;3924;48.830;9.262;2022-09-09T05:59:30;98260.53;;;16.99;68.14
7760;BME280;3924;48.830;9.262;2022-09-09T06:01:58;98266.38;;;16.98;68.14
7760;BME280;3924;48.830;9.262;2022-09-09T06:04:25;98261.69;;;16.98;68.32
7760;BME280;3924;48.830;9.262;2022-09-09T06:06:51;98254.41;;;17.02;67.98
7760;BME280;3924;48.830;9.262;2022-09-09T06:09:18;98259.63;;;17.07;68.11
7760;BME280;3924;48.830;9.262;2022-09-09T06:11:44;98268.41;;;17.13;67.66
7760;BME280;3924;48.830;9.262;2022-09-09T06:14:11;98266.25;;;17.18;67.79
7760;BME280;3924;48.830;9.262;2022-09-09T06:16:38;98257.81;;;17.23;67.89
7760;BME280;3924;48.830;9.262;2022-09-09T06:19:05;98264.97;;;17.28;67.38
7760;BME280;3924;48.830;9.262;2022-09-09T06:21:35;98262.81;;;17.34;67.09
7760;BME280;3924;48.830;9.262;2022-09-09T06:24:03;98255.72;;;17.33;67.26
7760;BME280;3924;48.830;9.262;2022-09-09T06:26:32;98262.94;;;17.37;67.42
7760;BME280;3924;48.830;9.262;2022-09-09T06:29:02;98261.00;;;17.38;66.92
7760;BME280;3924;48.830;9.262;2022-09-09T06:31:32;98265.31;;;17.39;67.42
7760;BME280;3924;48.830;9.262;2022-09-09T06:34:04;98270.09;;;17.42;67.49
7760;BME280;3924;48.830;9.262;2022-09-09T06:36:33;98268.97;;;17.43;67.29
7760;BME280;3924;48.830;9.262;2022-09-09T06:39:00;98258.47;;;17.45;66.31
7760;BME280;3924;48.830;9.262;2022-09-09T06:41:29;98266.09;;;17.52;67.01
7760;BME280;3924;48.830;9.262;2022-09-09T06:43:56;98262.31;;;17.56;67.12
7760;BME280;3924;48.830;9.262;2022-09-09T06:46:28;98265.97;;;17.60;66.57
7760;BME280;3924;48.830;9.262;2022-09-09T06:48:55;98269.28;;;17.66;66.90
7760;BME280;3924;48.830;9.262;2022-09-09T06:51:28;98268.47;;;17.65;66.93
7760;BME280;3924;48.830;9.262;2022-09-09T06:53:57;98270.06;;;17.66;66.95
7760;BME280;3924;48.830;9.262;2022-09-09T06:56:35;98279.53;;;17.69;66.77
7760;BME280;3924;48.830;9.262;2022-09-09T06:59:04;98273.41;;;17.72;66.24
7760;BME280;3924;48.830;9.262;2022-09-09T07:01:37;98274.22;;;17.72;67.31
7760;BME280;3924;48.830;9.262;2022-09-09T07:04:04;98273.97;;;17.77;66.72
7760;BME280;3924;48.830;9.262;2022-09-09T07:06:35;98266.63;;;17.82;66.73
7760;BME280;3924;48.830;9.262;2022-09-09T07:09:05;98268.44;;;17.90;66.17
7760;BME280;3924;48.830;9.262;2022-09-09T07:11:37;98265.44;;;17.95;66.21
7760;BME280;3924;48.830;9.262;2022-09-09T07:14:04;98275.72;;;17.98;66.83
7760;BME280;3924;48.830;9.262;2022-09-09T07:16:30;98262.91;;;18.02;66.37
7760;BME280;3924;48.830;9.262;2022-09-09T07:18:59;98275.31;;;18.12;66.08
7760;BME280;3924;48.830;9.262;2022-09-09T07:21:27;98270.38;;;18.17;66.44
7760;BME280;3924;48.830;9.262;2022-09-09T07:23:54;98270.94;;;18.23;65.82
7760;BME280;3924;48.830;9.262;2022-09-09T07:26:26;98269.66;;;18.33;65.17
7760;BME280;3924;48.830;9.262;2022-09-09T07:28:53;98264.34;;;18.40;64.85
7760;BME280;3924;48.830;9.262;2022-09-09T07:31:22;98261.34;;;18.45;65.77
7760;BME280;3924;48.830;9.262;2022-09-09T07:33:50;98263.13;;;18.53;65.20
7760;BME280;3924;48.830;9.262;2022-09-09T07:36:20;98259.44;;;18.61;65.33
7760;BME280;3924;48.830;9.262;2022-09-09T07:38:52;98272.78;;;18.63;65.23
7760;BME280;3924;48.830;9.262;2022-09-09T07:41:25;98266.94;;;18.64;64.86
7760;BME280;3924;48.830;9.262;2022-09-09T07:43:52;98273.91;;;18.74;65.62
7760;BME280;3924;48.830;9.262;2022-09-09T07:46:24;98272.56;;;18.83;64.99
7760;BME280;3924;48.830;9.262;2022-09-09T07:48:53;98260.59;;;18.92;64.15
7760;BME280;3924;48.830;9.262;2022-09-09T07:51:33;98263.00;;;19.09;63.83
7760;BME280;3924;48.830;9.262;2022-09-09T07:54:02;98273.72;;;19.30;63.67
7760;BME280;3924;48.830;9.262;2022-09-09T07:56:30;98269.06;;;19.34;63.57
7760;BME280;3924;48.830;9.262;2022-09-09T07:58:59;98281.44;;;19.24;64.25
7760;BME280;3924;48.830;9.262;2022-09-09T08:01:32;98284.28;;;19.12;64.78
7760;BME280;3924;48.830;9.262;2022-09-09T08:04:05;98291.19;;;19.06;64.30
7760;BME280;3924;48.830;9.262;2022-09-09T08:06:37;98284.59;;;19.26;63.11
7760;BME280;3924;48.830;9.262;2022-09-09T08:09:04;98279.28;;;19.49;63.07
7760;BME280;3924;48.830;9.262;2022-09-09T08:11:32;98272.69;;;19.70;63.40
7760;BME280;3924;48.830;9.262;2022-09-09T08:14:06;98289.28;;;19.92;62.51
7760;BME280;3924;48.830;9.262;2022-09-09T08:16:36;98278.72;;;20.14;61.83
7760;BME280;3924;48.830;9.262;2022-09-09T08:19:04;98281.09;;;20.35;61.82
7760;BME280;3924;48.830;9.262;2022-09-09T08:21:34;98281.47;;;20.53;60.64
7760;BME280;3924;48.830;9.262;2022-09-09T08:24:01;98286.22;;;20.56;60.88
7760;BME280;3924;48.830;9.262;2022-09-09T08:26:30;98283.47;;;20.56;61.97
7760;BME280;3924;48.830;9.262;2022-09-09T08:28:58;98282.72;;;20.59;60.96
7760;BME280;3924;48.830;9.262;2022-09-09T08:31:27;98283.72;;;20.70;60.91
7760;BME280;3924;48.830;9.262;2022-09-09T08:33:55;98287.91;;;20.83;60.40
7760;BME280;3924;48.830;9.262;2022-09-09T08:36:24;98289.94;;;20.86;61.13
7760;BME280;3924;48.830;9.262;2022-09-09T08:38:54;98298.00;;;20.98;60.51
7760;BME280;3924;48.830;9.262;2022-09-09T08:44:37;98289.31;;;21.42;58.38
7760;BME280;3924;48.830;9.262;2022-09-09T08:52:31;98279.09;;;21.73;58.43
7760;BME280;3924;48.830;9.262;2022-09-09T08:55:31;98287.19;;;21.89;58.23
7760;BME280;3924;48.830;9.262;2022-09-09T08:58:09;98287.56;;;22.14;57.17
7760;BME280;3924;48.830;9.262;2022-09-09T09:11:47;98282.13;;;22.21;57.74
7760;BME280;3924;48.830;9.262;2022-09-09T09:14:22;98272.09;;;22.43;57.00
7760;BME280;3924;48.830;9.262;2022-09-09T09:19:22;98271.53;;;21.96;56.51
7760;BME280;3924;48.830;9.262;2022-09-09T09:22:01;98283.69;;;21.92;57.59
7760;BME280;3924;48.830;9.262;2022-09-09T09:27:33;98282.53;;;21.93;56.80
7760;BME280;3924;48.830;9.262;2022-09-09T09:33:01;98267.28;;;21.72;56.81
7760;BME280;3924;48.830;9.262;2022-09-09T09:35:29;98272.41;;;21.47;57.54
7760;BME280;3924;48.830;9.262;2022-09-09T09:37:55;98286.19;;;21.21;56.82
7760;BME280;3924;48.830;9.262;2022-09-09T09:40:53;98293.53;;;20.90;57.45
7760;BME280;3924;48.830;9.262;2022-09-09T09:45:53;98290.16;;;20.55;58.02
7760;BME280;3924;48.830;9.262;2022-09-09T09:48:39;98289.22;;;20.28;59.22
7760;BME280;3924;48.830;9.262;2022-09-09T09:51:12;98274.00;;;20.14;59.31
7760;BME280;3924;48.830;9.262;2022-09-09T09:53:42;98273.63;;;20.35;57.81
7760;BME280;3924;48.830;9.262;2022-09-09T09:56:11;98264.28;;;20.82;57.47
7760;BME280;3924;48.830;9.262;2022-09-09T09:58:50;98262.09;;;21.18;56.94
7760;BME280;3924;48.830;9.262;2022-09-09T10:03:52;98260.09;;;21.68;55.47
7760;BME280;3924;48.830;9.262;2022-09-09T10:06:36;98261.22;;;21.93;54.00
7760;BME280;3924;48.830;9.262;2022-09-09T10:09:24;98260.25;;;22.08;53.79
7760;BME280;3924;48.830;9.262;2022-09-09T10:18:08;98236.84;;;22.70;52.47
7760;BME280;3924;48.830;9.262;2022-09-09T10:20:39;98236.94;;;22.80;51.25
7760;BME280;3924;48.830;9.262;2022-09-09T10:29:30;98231.59;;;22.98;51.65
7760;BME280;3924;48.830;9.262;2022-09-09T10:39:56;98234.84;;;23.07;50.40
7760;BME280;3924;48.830;9.262;2022-09-09T10:42:30;98243.00;;;23.44;50.18
7760;BME280;3924;48.830;9.262;2022-09-09T10:45:37;98239.22;;;23.74;50.05
7760;BME280;3924;48.830;9.262;2022-09-09T10:48:30;98241.69;;;23.90;48.97
7760;BME280;3924;48.830;9.262;2022-09-09T10:56:57;98227.94;;;24.11;49.25
7760;BME280;3924;48.830;9.262;2022-09-09T10:59:30;98231.22;;;23.55;50.02
7760;BME280;3924;48.830;9.262;2022-09-09T11:05:19;98233.19;;;22.99;51.33
7760;BME280;3924;48.830;9.262;2022-09-09T11:07:59;98238.78;;;23.10;50.68
7760;BME280;3924;48.830;9.262;2022-09-09T11:13:23;98241.22;;;23.18;51.05
7760;BME280;3924;48.830;9.262;2022-09-09T11:15:57;98222.66;;;23.19;50.99
7760;BME280;3924;48.830;9.262;2022-09-09T11:18:29;98217.81;;;23.02;51.12
7760;BME280;3924;48.830;9.262;2022-09-09T11:21:01;98223.63;;;22.89;51.60
7760;BME280;3924;48.830;9.262;2022-09-09T11:23:43;98256.53;;;22.64;52.41
7760;BME280;3924;48.830;9.262;2022-09-09T11:26:18;98266.63;;;22.13;52.15
7760;BME280;3924;48.830;9.262;2022-09-09T11:29:04;98275.06;;;21.40;53.72
7760;BME280;3924;48.830;9.262;2022-09-09T11:31:42;98280.19;;;20.92;54.79
7760;BME280;3924;48.830;9.262;2022-09-09T11:35:19;98279.22;;;20.39;56.02
7760;BME280;3924;48.830;9.262;2022-09-09T11:37:25;98276.25;;;20.09;56.56
7760;BME280;3924;48.830;9.262;2022-09-09T11:40:04;98279.78;;;19.90;57.20
7760;BME280;3924;48.830;9.262;2022-09-09T11:42:34;98290.78;;;19.90;57.61
7760;BME280;3924;48.830;9.262;2022-09-09T11:45:15;98295.31;;;19.98;57.10
7760;BME280;3924;48.830;9.262;2022-09-09T11:47:53;98272.03;;;19.95;57.26
7760;BME280;3924;48.830;9.262;2022-09-09T11:52:48;98291.28;;;19.95;56.81
7760;BME280;3924;48.830;9.262;2022-09-09T11:55:30;98280.00;;;20.01;56.20
7760;BME280;3924;48.830;9.262;2022-09-09T11:57:59;98288.94;;;20.13;56.50
7760;BME280;3924;48.830;9.262;2022-09-09T12:03:01;98276.63;;;20.46;55.60
7760;BME280;3924;48.830;9.262;2022-09-09T12:05:42;98280.31;;;20.54;55.57
7760;BME280;3924;48.830;9.262;2022-09-09T12:08:16;98273.34;;;20.60;55.26
7760;BME280;3924;48.830;9.262;2022-09-09T12:10:57;98268.63;;;20.60;55.67
7760;BME280;3924;48.830;9.262;2022-09-09T12:13:26;98257.78;;;20.71;55.13
7760;BME280;3924;48.830;9.262;2022-09-09T12:15:55;98263.53;;;20.85;54.61
7760;BME280;3924;48.830;9.262;2022-09-09T12:18:38;98260.53;;;20.94;54.45
7760;BME280;3924;48.830;9.262;2022-09-09T12:21:35;98260.34;;;21.06;53.47
7760;BME280;3924;48.830;9.262;2022-09-09T12:24:09;98264.44;;;21.16;53.10
7760;BME280;3924;48.830;9.262;2022-09-09T12:37:34;98254.53;;;22.61;49.40
7760;BME280;3924;48.830;9.262;2022-09-09T12:40:18;98243.38;;;22.91;49.04
7760;BME280;3924;48.830;9.262;2022-09-09T12:42:45;98245.06;;;23.00;49.06
7760;BME280;3924;48.830;9.262;2022-09-09T12:45:19;98245.56;;;23.16;48.29
7760;BME280;3924;48.830;9.262;2022-09-09T12:47:54;98251.09;;;22.72;48.77
7760;BME280;3924;48.830;9.262;2022-09-09T12:50:25;98239.66;;;22.36;49.30
7760;BME280;3924;48.830;9.262;2022-09-09T12:52:55;98233.53;;;22.16;49.92
7760;BME280;3924;48.830;9.262;2022-09-09T12:55:28;98234.28;;;22.13;50.50
7760;BME280;3924;48.830;9.262;2022-09-09T12:57:57;98233.78;;;22.04;49.79
7760;BME280;3924;48.830;9.262;2022-09-09T13:00:25;98236.16;;;22.05;49.45
7760;BME280;3924;48.830;9.262;2022-09-09T13:02:55;98223.38;;;22.24;48.56
7760;BME280;3924;48.830;9.262;2022-09-09T13:05:36;98223.94;;;22.40;49.37
7760;BME280;3924;48.830;9.262;2022-09-09T13:08:05;98209.81;;;22.49;48.92
7760;BME280;3924;48.830;9.262;2022-09-09T13:10:38;98211.44;;;22.98;47.72
7760;BME280;3924;48.830;9.262;2022-09-09T13:13:28;98218.19;;;23.00;47.41
7760;BME280;3924;48.830;9.262;2022-09-09T13:15:58;98215.72;;;22.88;46.87
7760;BME280;3924;48.830;9.262;2022-09-09T13:18:31;98200.97;;;22.77;48.19
7760;BME280;3924;48.830;9.262;2022-09-09T13:20:59;98206.53;;;23.32;46.24
7760;BME280;3924;48.830;9.262;2022-09-09T13:23:32;98203.03;;;23.35;46.62
7760;BME280;3924;48.830;9.262;2022-09-09T13:26:01;98204.44;;;23.11;46.15
7760;BME280;3924;48.830;9.262;2022-09-09T13:28:30;98195.13;;;22.85;47.34
7760;BME280;3924;48.830;9.262;2022-09-09T13:31:00;98187.81;;;22.63;47.65
7760;BME280;3924;48.830;9.262;2022-09-09T13:36:01;98188.50;;;22.49;48.20
7760;BME280;3924;48.830;9.262;2022-09-09T13:38:32;98198.03;;;22.55;47.50
7760;BME280;3924;48.830;9.262;2022-09-09T13:41:04;98194.78;;;22.90;47.72
7760;BME280;3924;48.830;9.262;2022-09-09T13:43:37;98189.25;;;23.53;46.08
7760;BME280;3924;48.830;9.262;2022-09-09T13:46:41;98193.47;;;24.05;45.29
7760;BME280;3924;48.830;9.262;2022-09-09T13:51:42;98176.97;;;24.41;44.87
7760;BME280;3924;48.830;9.262;2022-09-09T13:54:10;98177.66;;;24.02;44.89
7760;BME280;3924;48.830;9.262;2022-09-09T13:56:38;98179.91;;;23.71;46.01
7760;BME280;3924;48.830;9.262;2022-09-09T13:59:10;98176.53;;;23.34;46.22
7760;BME280;3924;48.830;9.262;2022-09-09T14:01:37;98174.84;;;23.15;46.68
7760;BME280;3924;48.830;9.262;2022-09-09T14:04:04;98176.41;;;23.19;46.58
7760;BME280;3924;48.830;9.262;2022-09-09T14:06:33;98174.91;;;23.33;46.40
7760;BME280;3924;48.830;9.262;2022-09-09T14:09:10;98174.38;;;23.79;45.84
7760;BME280;3924;48.830;9.262;2022-09-09T14:11:37;98178.88;;;24.22;44.81
7760;BME280;3924;48.830;9.262;2022-09-09T14:14:03;98181.72;;;24.47;44.08
7760;BME280;3924;48.830;9.262;2022-09-09T14:16:30;98180.94;;;24.65;43.72
7760;BME280;3924;48.830;9.262;2022-09-09T14:18:57;98168.97;;;24.21;44.35
7760;BME280;3924;48.830;9.262;2022-09-09T14:21:23;98171.25;;;23.87;45.52
7760;BME280;3924;48.830;9.262;2022-09-09T14:23:50;98170.13;;;24.02;44.53
7760;BME280;3924;48.830;9.262;2022-09-09T14:26:16;98170.53;;;24.15;44.40
7760;BME280;3924;48.830;9.262;2022-09-09T14:28:45;98166.19;;;24.21;44.23
7760;BME280;3924;48.830;9.262;2022-09-09T14:31:22;98159.09;;;24.31;43.60
7760;BME280;3924;48.830;9.262;2022-09-09T14:33:48;98171.75;;;24.28;44.14
7760;BME280;3924;48.830;9.262;2022-09-09T14:36:15;98175.31;;;24.22;43.78
7760;BME280;3924;48.830;9.262;2022-09-09T14:38:41;98171.28;;;23.94;44.44
7760;BME280;3924;48.830;9.262;2022-09-09T14:41:10;98170.44;;;23.80;43.70
7760;BME280;3924;48.830;9.262;2022-09-09T14:43:38;98163.34;;;23.86;43.86
7760;BME280;3924;48.830;9.262;2022-09-09T14:46:09;98176.84;;;24.01;43.87
7760;BME280;3924;48.830;9.262;2022-09-09T14:48:36;98164.19;;;24.04;43.64
7760;BME280;3924;48.830;9.262;2022-09-09T14:51:11;98159.44;;;24.08;43.28
7760;BME280;3924;48.830;9.262;2022-09-09T14:53:42;98168.09;;;23.92;42.90
7760;BME280;3924;48.830;9.262;2022-09-09T14:56:13;98160.50;;;23.64;43.32
7760;BME280;3924;48.830;9.262;2022-09-09T14:58:40;98177.53;;;23.73;43.52
7760;BME280;3924;48.830;9.262;2022-09-09T15:01:18;98174.28;;;23.57;44.09
7760;BME280;3924;48.830;9.262;2022-09-09T15:03:51;98171.03;;;23.41;43.83
7760;BME280;3924;48.830;9.262;2022-09-09T15:06:19;98171.84;;;23.45;43.87
7760;BME280;3924;48.830;9.262;2022-09-09T15:08:47;98162.56;;;23.82;43.50
7760;BME280;3924;48.830;9.262;2022-09-09T15:11:14;98166.16;;;24.07;42.35
7760;BME280;3924;48.830;9.262;2022-09-09T15:13:42;98170.13;;;24.02;42.80
7760;BME280;3924;48.830;9.262;2022-09-09T15:16:14;98173.63;;;23.82;43.39
7760;BME280;3924;48.830;9.262;2022-09-09T15:18:41;98172.28;;;23.54;43.93
7760;BME280;3924;48.830;9.262;2022-09-09T15:21:16;98180.44;;;23.29;43.81
7760;BME280;3924;48.830;9.262;2022-09-09T15:23:43;98187.38;;;23.05;43.85
7760;BME280;3924;48.830;9.262;2022-09-09T15:26:10;98189.91;;;22.77;44.08
7760;BME280;3924;48.830;9.262;2022-09-09T15:28:37;98186.22;;;22.58;44.41
7760;BME280;3924;48.830;9.262;2022-09-09T15:31:07;98186.91;;;22.48;45.38
7760;BME280;3924;48.830;9.262;2022-09-09T15:33:35;98175.78;;;22.41;45.68
7760;BME280;3924;48.830;9.262;2022-09-09T15:36:18;98170.59;;;22.36;44.57
7760;BME280;3924;48.830;9.262;2022-09-09T15:38:45;98178.06;;;22.32;44.69
7760;BME280;3924;48.830;9.262;2022-09-09T15:41:12;98175.69;;;22.30;44.82
7760;BME280;3924;48.830;9.262;2022-09-09T15:43:43;98175.66;;;22.27;44.88
7760;BME280;3924;48.830;9.262;2022-09-09T15:46:30;98174.03;;;22.22;44.94
7760;BME280;3924;48.830;9.262;2022-09-09T15:49:07;98183.88;;;22.20;44.87